logo
Search for airport 
image banner adimage banner adimage banner ad
image banner ad

MMRFB - Los Ajos

Located in Guerrero, Mexico

ICAO - , IATA -

Data provided by Airmate  

General information

Coordinates: N27°44'2" W100°23'0"
Elevation is 1200 feet MSL.
Magnetic variation is 4° East
View others Airports in Coahuila

Operational data

Special qualification required
Current time UTC:
Current local time:
Weather at : - ( 0 km )
METAR: PTRO 180710Z 04004KT 8SM -SHRA FEW008 SCT014CB OVC110 26/25 A2973 RMK HZ ALQDS CB N-E
View NOTAMs / SUP AIP / TFR affecting this airport [VIEW]
Communications frequencies: [VIEW]

Runways:

Airport contact information

Address: Guerrero Mexico

Satellite view of MMRFB